sensor_id;sensor_type;location;lat;lon;timestamp;P1;durP1;ratioP1;P2;durP2;ratioP2
3083;SDS011;1552;51.952;7.618;2023-09-08T00:01:44;11.27;;;3.47;;
3083;SDS011;1552;51.952;7.618;2023-09-08T00:04:10;5.20;;;3.30;;
3083;SDS011;1552;51.952;7.618;2023-09-08T00:06:38;4.60;;;3.20;;
3083;SDS011;1552;51.952;7.618;2023-09-08T00:09:04;4.55;;;3.22;;
3083;SDS011;1552;51.952;7.618;2023-09-08T00:11:31;7.07;;;3.35;;
3083;SDS011;1552;51.952;7.618;2023-09-08T00:13:57;6.32;;;3.40;;
3083;SDS011;1552;51.952;7.618;2023-09-08T00:16:23;4.45;;;3.15;;
3083;SDS011;1552;51.952;7.618;2023-09-08T00:18:50;6.50;;;3.53;;
3083;SDS011;1552;51.952;7.618;2023-09-08T00:21:16;3.80;;;3.03;;
3083;SDS011;1552;51.952;7.618;2023-09-08T00:23:44;4.47;;;3.42;;
3083;SDS011;1552;51.952;7.618;2023-09-08T00:26:10;3.72;;;3.13;;
3083;SDS011;1552;51.952;7.618;2023-09-08T00:28:36;13.25;;;4.15;;
3083;SDS011;1552;51.952;7.618;2023-09-08T00:31:03;4.93;;;3.40;;
3083;SDS011;1552;51.952;7.618;2023-09-08T00:33:30;6.13;;;3.05;;
3083;SDS011;1552;51.952;7.618;2023-09-08T00:35:56;5.60;;;3.20;;
3083;SDS011;1552;51.952;7.618;2023-09-08T00:38:23;5.00;;;3.25;;
3083;SDS011;1552;51.952;7.618;2023-09-08T00:40:51;5.35;;;3.80;;
3083;SDS011;1552;51.952;7.618;2023-09-08T00:43:17;5.22;;;2.97;;
3083;SDS011;1552;51.952;7.618;2023-09-08T00:45:44;5.50;;;3.65;;
3083;SDS011;1552;51.952;7.618;2023-09-08T00:48:11;5.72;;;3.20;;
3083;SDS011;1552;51.952;7.618;2023-09-08T00:50:39;4.75;;;3.22;;
3083;SDS011;1552;51.952;7.618;2023-09-08T00:53:05;5.78;;;3.95;;
3083;SDS011;1552;51.952;7.618;2023-09-08T00:55:32;9.13;;;4.03;;
3083;SDS011;1552;51.952;7.618;2023-09-08T00:58:00;6.07;;;4.05;;
3083;SDS011;1552;51.952;7.618;2023-09-08T01:00:27;7.63;;;4.07;;
3083;SDS011;1552;51.952;7.618;2023-09-08T01:02:53;7.05;;;3.90;;
3083;SDS011;1552;51.952;7.618;2023-09-08T01:05:20;6.88;;;3.72;;
3083;SDS011;1552;51.952;7.618;2023-09-08T01:07:46;6.32;;;3.53;;
3083;SDS011;1552;51.952;7.618;2023-09-08T01:10:13;8.65;;;4.00;;
3083;SDS011;1552;51.952;7.618;2023-09-08T01:12:40;5.10;;;3.70;;
3083;SDS011;1552;51.952;7.618;2023-09-08T01:15:08;6.65;;;3.90;;
3083;SDS011;1552;51.952;7.618;2023-09-08T01:17:35;9.10;;;4.15;;
3083;SDS011;1552;51.952;7.618;2023-09-08T01:20:03;6.85;;;3.88;;
3083;SDS011;1552;51.952;7.618;2023-09-08T01:22:38;7.78;;;3.20;;
3083;SDS011;1552;51.952;7.618;2023-09-08T01:25:14;7.65;;;4.10;;
3083;SDS011;1552;51.952;7.618;2023-09-08T01:27:45;4.70;;;3.58;;
3083;SDS011;1552;51.952;7.618;2023-09-08T01:30:12;6.40;;;3.67;;
3083;SDS011;1552;51.952;7.618;2023-09-08T01:32:39;5.03;;;3.50;;
3083;SDS011;1552;51.952;7.618;2023-09-08T01:35:06;6.18;;;3.60;;
3083;SDS011;1552;51.952;7.618;2023-09-08T01:37:33;6.03;;;3.53;;
3083;SDS011;1552;51.952;7.618;2023-09-08T01:39:59;4.97;;;3.55;;
3083;SDS011;1552;51.952;7.618;2023-09-08T01:42:27;6.97;;;4.32;;
3083;SDS011;1552;51.952;7.618;2023-09-08T01:44:53;4.60;;;3.70;;
3083;SDS011;1552;51.952;7.618;2023-09-08T01:47:19;5.05;;;3.72;;
3083;SDS011;1552;51.952;7.618;2023-09-08T01:49:46;4.97;;;4.05;;
3083;SDS011;1552;51.952;7.618;2023-09-08T01:52:12;9.88;;;4.30;;
3083;SDS011;1552;51.952;7.618;2023-09-08T01:54:38;8.52;;;4.15;;
3083;SDS011;1552;51.952;7.618;2023-09-08T01:57:07;8.32;;;4.32;;
3083;SDS011;1552;51.952;7.618;2023-09-08T01:59:36;5.88;;;4.30;;
3083;SDS011;1552;51.952;7.618;2023-09-08T02:02:03;5.95;;;4.35;;
3083;SDS011;1552;51.952;7.618;2023-09-08T02:04:29;6.57;;;4.32;;
3083;SDS011;1552;51.952;7.618;2023-09-08T02:06:56;8.27;;;4.68;;
3083;SDS011;1552;51.952;7.618;2023-09-08T02:09:29;6.40;;;4.10;;
3083;SDS011;1552;51.952;7.618;2023-09-08T02:11:56;6.63;;;4.32;;
3083;SDS011;1552;51.952;7.618;2023-09-08T02:14:22;5.55;;;4.40;;
3083;SDS011;1552;51.952;7.618;2023-09-08T02:16:49;7.70;;;4.13;;
3083;SDS011;1552;51.952;7.618;2023-09-08T02:19:16;7.50;;;4.53;;
3083;SDS011;1552;51.952;7.618;2023-09-08T02:21:42;6.03;;;4.60;;
3083;SDS011;1552;51.952;7.618;2023-09-08T02:24:09;7.15;;;4.57;;
3083;SDS011;1552;51.952;7.618;2023-09-08T02:26:35;5.85;;;4.13;;
3083;SDS011;1552;51.952;7.618;2023-09-08T02:29:01;7.80;;;5.22;;
3083;SDS011;1552;51.952;7.618;2023-09-08T02:31:28;9.30;;;4.50;;
3083;SDS011;1552;51.952;7.618;2023-09-08T02:33:55;8.68;;;4.82;;
3083;SDS011;1552;51.952;7.618;2023-09-08T02:36:22;8.43;;;4.70;;
3083;SDS011;1552;51.952;7.618;2023-09-08T02:38:50;7.35;;;4.82;;
3083;SDS011;1552;51.952;7.618;2023-09-08T02:41:16;7.28;;;3.92;;
3083;SDS011;1552;51.952;7.618;2023-09-08T02:43:43;6.68;;;4.65;;
3083;SDS011;1552;51.952;7.618;2023-09-08T02:46:09;7.88;;;4.70;;
3083;SDS011;1552;51.952;7.618;2023-09-08T02:48:35;9.05;;;5.55;;
3083;SDS011;1552;51.952;7.618;2023-09-08T02:51:03;5.80;;;3.92;;
3083;SDS011;1552;51.952;7.618;2023-09-08T02:53:30;7.47;;;4.28;;
3083;SDS011;1552;51.952;7.618;2023-09-08T02:55:56;7.72;;;4.55;;
3083;SDS011;1552;51.952;7.618;2023-09-08T02:58:22;9.02;;;4.93;;
3083;SDS011;1552;51.952;7.618;2023-09-08T03:00:49;5.82;;;4.10;;
3083;SDS011;1552;51.952;7.618;2023-09-08T03:03:17;6.82;;;4.22;;
3083;SDS011;1552;51.952;7.618;2023-09-08T03:05:43;7.20;;;4.28;;
3083;SDS011;1552;51.952;7.618;2023-09-08T03:08:11;7.40;;;5.30;;
3083;SDS011;1552;51.952;7.618;2023-09-08T03:10:37;10.02;;;5.20;;
3083;SDS011;1552;51.952;7.618;2023-09-08T03:13:03;7.47;;;4.82;;
3083;SDS011;1552;51.952;7.618;2023-09-08T03:15:30;6.00;;;4.20;;
3083;SDS011;1552;51.952;7.618;2023-09-08T03:17:56;5.43;;;4.05;;
3083;SDS011;1552;51.952;7.618;2023-09-08T03:20:23;7.43;;;4.18;;
3083;SDS011;1552;51.952;7.618;2023-09-08T03:22:50;6.10;;;4.18;;
3083;SDS011;1552;51.952;7.618;2023-09-08T03:25:18;8.43;;;4.28;;
3083;SDS011;1552;51.952;7.618;2023-09-08T03:27:45;5.47;;;4.07;;
3083;SDS011;1552;51.952;7.618;2023-09-08T03:30:11;7.68;;;4.13;;
3083;SDS011;1552;51.952;7.618;2023-09-08T03:32:38;8.32;;;4.70;;
3083;SDS011;1552;51.952;7.618;2023-09-08T03:35:04;11.70;;;5.07;;
3083;SDS011;1552;51.952;7.618;2023-09-08T03:37:32;8.60;;;4.60;;
3083;SDS011;1552;51.952;7.618;2023-09-08T03:39:58;6.75;;;4.00;;
3083;SDS011;1552;51.952;7.618;2023-09-08T03:42:26;7.72;;;4.80;;
3083;SDS011;1552;51.952;7.618;2023-09-08T03:44:52;7.13;;;4.82;;
3083;SDS011;1552;51.952;7.618;2023-09-08T03:47:19;5.88;;;4.45;;
3083;SDS011;1552;51.952;7.618;2023-09-08T03:49:45;5.03;;;4.47;;
3083;SDS011;1552;51.952;7.618;2023-09-08T03:52:11;6.93;;;4.82;;
3083;SDS011;1552;51.952;7.618;2023-09-08T03:54:38;5.55;;;4.53;;
3083;SDS011;1552;51.952;7.618;2023-09-08T03:57:04;8.82;;;4.55;;
3083;SDS011;1552;51.952;7.618;2023-09-08T03:59:32;7.63;;;4.70;;
3083;SDS011;1552;51.952;7.618;2023-09-08T04:01:58;4.18;;;3.58;;
3083;SDS011;1552;51.952;7.618;2023-09-08T04:04:26;13.60;;;4.65;;
3083;SDS011;1552;51.952;7.618;2023-09-08T04:06:52;8.27;;;4.53;;
3083;SDS011;1552;51.952;7.618;2023-09-08T04:09:18;6.53;;;4.43;;
3083;SDS011;1552;51.952;7.618;2023-09-08T04:11:45;6.47;;;4.47;;
3083;SDS011;1552;51.952;7.618;2023-09-08T04:14:12;6.35;;;5.07;;
3083;SDS011;1552;51.952;7.618;2023-09-08T04:16:39;9.18;;;5.07;;
3083;SDS011;1552;51.952;7.618;2023-09-08T04:19:06;7.07;;;4.85;;
3083;SDS011;1552;51.952;7.618;2023-09-08T04:21:32;7.90;;;4.90;;
3083;SDS011;1552;51.952;7.618;2023-09-08T04:24:00;10.18;;;5.63;;
3083;SDS011;1552;51.952;7.618;2023-09-08T04:26:30;11.55;;;4.97;;
3083;SDS011;1552;51.952;7.618;2023-09-08T04:28:56;11.48;;;5.03;;
3083;SDS011;1552;51.952;7.618;2023-09-08T04:31:22;9.65;;;4.97;;
3083;SDS011;1552;51.952;7.618;2023-09-08T04:33:50;6.22;;;4.78;;
3083;SDS011;1552;51.952;7.618;2023-09-08T04:36:18;9.50;;;4.78;;
3083;SDS011;1552;51.952;7.618;2023-09-08T04:38:44;8.88;;;4.53;;
3083;SDS011;1552;51.952;7.618;2023-09-08T04:41:11;9.02;;;4.95;;
3083;SDS011;1552;51.952;7.618;2023-09-08T04:43:37;9.70;;;4.60;;
3083;SDS011;1552;51.952;7.618;2023-09-08T04:46:03;7.82;;;4.97;;
3083;SDS011;1552;51.952;7.618;2023-09-08T04:48:30;9.60;;;4.40;;
3083;SDS011;1552;51.952;7.618;2023-09-08T04:50:57;9.73;;;4.40;;
3083;SDS011;1552;51.952;7.618;2023-09-08T04:53:24;7.32;;;5.25;;
3083;SDS011;1552;51.952;7.618;2023-09-08T04:55:50;9.43;;;4.45;;
3083;SDS011;1552;51.952;7.618;2023-09-08T04:58:17;9.52;;;4.40;;
3083;SDS011;1552;51.952;7.618;2023-09-08T05:00:43;8.93;;;5.22;;
3083;SDS011;1552;51.952;7.618;2023-09-08T05:03:10;7.13;;;4.32;;
3083;SDS011;1552;51.952;7.618;2023-09-08T05:05:36;5.85;;;4.70;;
3083;SDS011;1552;51.952;7.618;2023-09-08T05:08:06;7.85;;;4.60;;
3083;SDS011;1552;51.952;7.618;2023-09-08T05:10:33;7.35;;;4.80;;
3083;SDS011;1552;51.952;7.618;2023-09-08T05:12:59;8.80;;;5.72;;
3083;SDS011;1552;51.952;7.618;2023-09-08T05:15:25;6.68;;;4.32;;
3083;SDS011;1552;51.952;7.618;2023-09-08T05:17:52;6.15;;;4.88;;
3083;SDS011;1552;51.952;7.618;2023-09-08T05:20:18;8.93;;;5.25;;
3083;SDS011;1552;51.952;7.618;2023-09-08T05:22:45;6.82;;;4.75;;
3083;SDS011;1552;51.952;7.618;2023-09-08T05:25:12;8.48;;;4.97;;
3083;SDS011;1552;51.952;7.618;2023-09-08T05:27:39;12.75;;;5.50;;
3083;SDS011;1552;51.952;7.618;2023-09-08T05:30:05;8.88;;;4.43;;
3083;SDS011;1552;51.952;7.618;2023-09-08T05:32:37;11.95;;;5.20;;
3083;SDS011;1552;51.952;7.618;2023-09-08T05:35:04;5.45;;;4.32;;
3083;SDS011;1552;51.952;7.618;2023-09-08T05:37:30;8.27;;;4.85;;
3083;SDS011;1552;51.952;7.618;2023-09-08T05:39:57;5.18;;;4.50;;
3083;SDS011;1552;51.952;7.618;2023-09-08T05:42:25;11.50;;;5.25;;
3083;SDS011;1552;51.952;7.618;2023-09-08T05:44:51;8.70;;;5.47;;
3083;SDS011;1552;51.952;7.618;2023-09-08T05:47:19;14.35;;;5.95;;
3083;SDS011;1552;51.952;7.618;2023-09-08T05:49:46;6.05;;;4.45;;
3083;SDS011;1552;51.952;7.618;2023-09-08T05:52:12;9.20;;;5.47;;
3083;SDS011;1552;51.952;7.618;2023-09-08T05:54:38;7.50;;;4.50;;
3083;SDS011;1552;51.952;7.618;2023-09-08T05:57:05;6.60;;;4.57;;
3083;SDS011;1552;51.952;7.618;2023-09-08T05:59:33;6.97;;;5.05;;
3083;SDS011;1552;51.952;7.618;2023-09-08T06:01:59;9.05;;;4.50;;
3083;SDS011;1552;51.952;7.618;2023-09-08T06:04:25;6.85;;;4.75;;
3083;SDS011;1552;51.952;7.618;2023-09-08T06:06:52;8.85;;;4.68;;
3083;SDS011;1552;51.952;7.618;2023-09-08T06:09:18;10.00;;;4.85;;
3083;SDS011;1552;51.952;7.618;2023-09-08T06:11:44;8.20;;;4.72;;
3083;SDS011;1552;51.952;7.618;2023-09-08T06:14:11;7.93;;;5.00;;
3083;SDS011;1552;51.952;7.618;2023-09-08T06:16:38;7.15;;;4.53;;
3083;SDS011;1552;51.952;7.618;2023-09-08T06:19:05;7.80;;;5.38;;
3083;SDS011;1552;51.952;7.618;2023-09-08T06:21:34;4.88;;;4.05;;
3083;SDS011;1552;51.952;7.618;2023-09-08T06:24:01;7.57;;;4.82;;
3083;SDS011;1552;51.952;7.618;2023-09-08T06:26:27;10.15;;;5.20;;
3083;SDS011;1552;51.952;7.618;2023-09-08T06:28:53;9.27;;;5.20;;
3083;SDS011;1552;51.952;7.618;2023-09-08T06:31:19;9.82;;;4.85;;
3083;SDS011;1552;51.952;7.618;2023-09-08T06:33:47;6.88;;;4.70;;
3083;SDS011;1552;51.952;7.618;2023-09-08T06:36:17;5.30;;;4.38;;
3083;SDS011;1552;51.952;7.618;2023-09-08T06:38:43;17.23;;;5.40;;
3083;SDS011;1552;51.952;7.618;2023-09-08T06:41:10;9.40;;;4.35;;
3083;SDS011;1552;51.952;7.618;2023-09-08T06:43:36;7.47;;;4.75;;
3083;SDS011;1552;51.952;7.618;2023-09-08T06:46:03;10.27;;;4.22;;
3083;SDS011;1552;51.952;7.618;2023-09-08T06:48:29;12.35;;;5.30;;
3083;SDS011;1552;51.952;7.618;2023-09-08T06:50:57;6.18;;;4.50;;
3083;SDS011;1552;51.952;7.618;2023-09-08T06:53:23;7.32;;;4.85;;
3083;SDS011;1552;51.952;7.618;2023-09-08T06:55:50;8.23;;;4.93;;
3083;SDS011;1552;51.952;7.618;2023-09-08T06:58:16;6.15;;;4.63;;
3083;SDS011;1552;51.952;7.618;2023-09-08T07:00:42;5.65;;;4.30;;
3083;SDS011;1552;51.952;7.618;2023-09-08T07:03:09;8.05;;;4.32;;
3083;SDS011;1552;51.952;7.618;2023-09-08T07:05:35;9.50;;;5.65;;
3083;SDS011;1552;51.952;7.618;2023-09-08T07:08:03;9.30;;;4.57;;
3083;SDS011;1552;51.952;7.618;2023-09-08T07:10:31;15.68;;;5.28;;
3083;SDS011;1552;51.952;7.618;2023-09-08T07:12:57;16.60;;;6.07;;
3083;SDS011;1552;51.952;7.618;2023-09-08T07:15:24;8.25;;;5.80;;
3083;SDS011;1552;51.952;7.618;2023-09-08T07:17:50;8.27;;;4.63;;
3083;SDS011;1552;51.952;7.618;2023-09-08T07:20:17;7.78;;;4.38;;
3083;SDS011;1552;51.952;7.618;2023-09-08T07:22:43;9.10;;;5.22;;
3083;SDS011;1552;51.952;7.618;2023-09-08T07:25:11;7.53;;;4.53;;
3083;SDS011;1552;51.952;7.618;2023-09-08T07:27:37;7.43;;;4.45;;
3083;SDS011;1552;51.952;7.618;2023-09-08T07:30:04;9.00;;;4.57;;
3083;SDS011;1552;51.952;7.618;2023-09-08T07:32:31;8.48;;;4.13;;
3083;SDS011;1552;51.952;7.618;2023-09-08T07:34:57;8.07;;;3.72;;
3083;SDS011;1552;51.952;7.618;2023-09-08T07:37:24;6.45;;;4.63;;
3083;SDS011;1552;51.952;7.618;2023-09-08T07:39:50;15.68;;;4.47;;
3083;SDS011;1552;51.952;7.618;2023-09-08T07:42:18;8.20;;;4.03;;
3083;SDS011;1552;51.952;7.618;2023-09-08T07:44:44;9.80;;;4.40;;
3083;SDS011;1552;51.952;7.618;2023-09-08T07:47:11;7.18;;;4.07;;
3083;SDS011;1552;51.952;7.618;2023-09-08T07:49:37;13.10;;;4.18;;
3083;SDS011;1552;51.952;7.618;2023-09-08T07:52:04;5.60;;;3.88;;
3083;SDS011;1552;51.952;7.618;2023-09-08T07:54:32;7.85;;;4.13;;
3083;SDS011;1552;51.952;7.618;2023-09-08T07:56:58;6.75;;;4.03;;
3083;SDS011;1552;51.952;7.618;2023-09-08T07:59:26;6.97;;;3.33;;
3083;SDS011;1552;51.952;7.618;2023-09-08T08:01:52;5.35;;;3.10;;
3083;SDS011;1552;51.952;7.618;2023-09-08T08:04:19;13.48;;;4.05;;
3083;SDS011;1552;51.952;7.618;2023-09-08T08:06:45;5.95;;;3.53;;
3083;SDS011;1552;51.952;7.618;2023-09-08T08:09:12;8.10;;;3.80;;
3083;SDS011;1552;51.952;7.618;2023-09-08T08:11:39;7.88;;;4.47;;
3083;SDS011;1552;51.952;7.618;2023-09-08T08:14:05;8.48;;;3.50;;
3083;SDS011;1552;51.952;7.618;2023-09-08T08:16:34;6.65;;;3.88;;
3083;SDS011;1552;51.952;7.618;2023-09-08T08:19:01;7.30;;;4.75;;
3083;SDS011;1552;51.952;7.618;2023-09-08T08:21:28;4.28;;;3.38;;
3083;SDS011;1552;51.952;7.618;2023-09-08T08:23:55;9.60;;;3.67;;
3083;SDS011;1552;51.952;7.618;2023-09-08T08:26:21;10.15;;;4.00;;
3083;SDS011;1552;51.952;7.618;2023-09-08T08:28:49;9.93;;;3.75;;
3083;SDS011;1552;51.952;7.618;2023-09-08T08:31:15;5.45;;;3.40;;
3083;SDS011;1552;51.952;7.618;2023-09-08T08:33:43;5.00;;;2.90;;
3083;SDS011;1552;51.952;7.618;2023-09-08T08:36:09;7.43;;;3.92;;
3083;SDS011;1552;51.952;7.618;2023-09-08T08:38:35;8.95;;;3.70;;
3083;SDS011;1552;51.952;7.618;2023-09-08T08:41:02;8.90;;;3.83;;
3083;SDS011;1552;51.952;7.618;2023-09-08T08:43:29;7.43;;;3.92;;
3083;SDS011;1552;51.952;7.618;2023-09-08T08:45:56;4.95;;;3.78;;
3083;SDS011;1552;51.952;7.618;2023-09-08T08:48:23;5.95;;;3.40;;
3083;SDS011;1552;51.952;7.618;2023-09-08T08:50:51;6.05;;;3.40;;
3083;SDS011;1552;51.952;7.618;2023-09-08T08:53:18;5.00;;;3.08;;
3083;SDS011;1552;51.952;7.618;2023-09-08T08:55:46;8.35;;;3.70;;
3083;SDS011;1552;51.952;7.618;2023-09-08T08:58:13;5.10;;;2.90;;
3083;SDS011;1552;51.952;7.618;2023-09-08T09:00:40;4.35;;;2.80;;
3083;SDS011;1552;51.952;7.618;2023-09-08T09:03:07;6.72;;;3.30;;
3083;SDS011;1552;51.952;7.618;2023-09-08T09:05:33;6.00;;;3.58;;
3083;SDS011;1552;51.952;7.618;2023-09-08T09:08:01;5.25;;;2.88;;
3083;SDS011;1552;51.952;7.618;2023-09-08T09:10:29;7.05;;;3.38;;
3083;SDS011;1552;51.952;7.618;2023-09-08T09:12:56;8.40;;;3.15;;
3083;SDS011;1552;51.952;7.618;2023-09-08T09:15:27;6.40;;;3.13;;
3083;SDS011;1552;51.952;7.618;2023-09-08T09:18:01;3.97;;;2.72;;
3083;SDS011;1552;51.952;7.618;2023-09-08T09:20:27;11.57;;;3.05;;
3083;SDS011;1552;51.952;7.618;2023-09-08T09:22:54;3.70;;;2.63;;
3083;SDS011;1552;51.952;7.618;2023-09-08T09:25:22;10.60;;;3.53;;
3083;SDS011;1552;51.952;7.618;2023-09-08T09:27:51;4.15;;;2.70;;
3083;SDS011;1552;51.952;7.618;2023-09-08T09:30:17;8.98;;;3.22;;
3083;SDS011;1552;51.952;7.618;2023-09-08T09:32:44;7.88;;;3.17;;
3083;SDS011;1552;51.952;7.618;2023-09-08T09:35:10;15.20;;;2.92;;
3083;SDS011;1552;51.952;7.618;2023-09-08T09:37:40;4.95;;;2.72;;
3083;SDS011;1552;51.952;7.618;2023-09-08T09:40:07;3.95;;;2.78;;
3083;SDS011;1552;51.952;7.618;2023-09-08T09:42:38;3.90;;;2.92;;
3083;SDS011;1552;51.952;7.618;2023-09-08T09:45:05;5.75;;;2.58;;
3083;SDS011;1552;51.952;7.618;2023-09-08T09:47:32;5.63;;;3.33;;
3083;SDS011;1552;51.952;7.618;2023-09-08T09:49:58;5.53;;;2.90;;
3083;SDS011;1552;51.952;7.618;2023-09-08T09:52:25;3.72;;;2.70;;
3083;SDS011;1552;51.952;7.618;2023-09-08T09:54:52;10.05;;;3.35;;
3083;SDS011;1552;51.952;7.618;2023-09-08T09:57:21;3.92;;;2.75;;
3083;SDS011;1552;51.952;7.618;2023-09-08T09:59:49;4.45;;;2.55;;
3083;SDS011;1552;51.952;7.618;2023-09-08T10:02:16;5.03;;;2.72;;
3083;SDS011;1552;51.952;7.618;2023-09-08T10:04:45;4.65;;;2.75;;
3083;SDS011;1552;51.952;7.618;2023-09-08T10:07:12;3.78;;;2.55;;
3083;SDS011;1552;51.952;7.618;2023-09-08T10:09:38;3.50;;;2.60;;
3083;SDS011;1552;51.952;7.618;2023-09-08T10:12:05;5.05;;;2.55;;
3083;SDS011;1552;51.952;7.618;2023-09-08T10:14:32;5.57;;;2.88;;
3083;SDS011;1552;51.952;7.618;2023-09-08T10:17:02;6.40;;;2.90;;
3083;SDS011;1552;51.952;7.618;2023-09-08T10:19:31;5.13;;;2.75;;
3083;SDS011;1552;51.952;7.618;2023-09-08T10:22:01;3.67;;;2.78;;
3083;SDS011;1552;51.952;7.618;2023-09-08T10:24:31;3.63;;;2.58;;
3083;SDS011;1552;51.952;7.618;2023-09-08T10:27:00;3.72;;;2.80;;
3083;SDS011;1552;51.952;7.618;2023-09-08T10:29:28;7.25;;;3.17;;
3083;SDS011;1552;51.952;7.618;2023-09-08T10:31:55;9.52;;;3.53;;
3083;SDS011;1552;51.952;7.618;2023-09-08T10:34:24;6.18;;;3.15;;
3083;SDS011;1552;51.952;7.618;2023-09-08T10:36:51;5.65;;;2.70;;
3083;SDS011;1552;51.952;7.618;2023-09-08T10:39:27;3.53;;;2.40;;
3083;SDS011;1552;51.952;7.618;2023-09-08T10:42:05;6.03;;;3.35;;
3083;SDS011;1552;51.952;7.618;2023-09-08T10:44:50;4.50;;;2.75;;
3083;SDS011;1552;51.952;7.618;2023-09-08T10:47:22;5.15;;;2.85;;
3083;SDS011;1552;51.952;7.618;2023-09-08T10:49:50;3.20;;;2.83;;
3083;SDS011;1552;51.952;7.618;2023-09-08T10:52:18;3.30;;;2.65;;
3083;SDS011;1552;51.952;7.618;2023-09-08T10:54:47;3.55;;;2.40;;
3083;SDS011;1552;51.952;7.618;2023-09-08T10:57:14;3.53;;;2.63;;
3083;SDS011;1552;51.952;7.618;2023-09-08T10:59:44;9.77;;;3.20;;
3083;SDS011;1552;51.952;7.618;2023-09-08T11:02:25;6.15;;;3.25;;
3083;SDS011;1552;51.952;7.618;2023-09-08T11:04:59;5.75;;;2.65;;
3083;SDS011;1552;51.952;7.618;2023-09-08T11:07:26;3.65;;;2.70;;
3083;SDS011;1552;51.952;7.618;2023-09-08T11:09:52;5.63;;;3.17;;
3083;SDS011;1552;51.952;7.618;2023-09-08T11:12:18;5.75;;;3.10;;
3083;SDS011;1552;51.952;7.618;2023-09-08T11:14:48;4.20;;;2.70;;
3083;SDS011;1552;51.952;7.618;2023-09-08T11:17:14;6.72;;;3.45;;
3083;SDS011;1552;51.952;7.618;2023-09-08T11:19:45;5.05;;;2.70;;
3083;SDS011;1552;51.952;7.618;2023-09-08T11:22:13;4.57;;;2.58;;
3083;SDS011;1552;51.952;7.618;2023-09-08T11:24:41;6.00;;;2.35;;
3083;SDS011;1552;51.952;7.618;2023-09-08T11:27:07;7.80;;;3.03;;
3083;SDS011;1552;51.952;7.618;2023-09-08T11:29:34;4.05;;;3.08;;
3083;SDS011;1552;51.952;7.618;2023-09-08T11:32:00;4.35;;;2.55;;
3083;SDS011;1552;51.952;7.618;2023-09-08T11:34:28;4.22;;;2.60;;
3083;SDS011;1552;51.952;7.618;2023-09-08T11:36:56;4.70;;;2.58;;
3083;SDS011;1552;51.952;7.618;2023-09-08T11:39:24;6.60;;;3.10;;
3083;SDS011;1552;51.952;7.618;2023-09-08T11:41:51;3.88;;;2.50;;
3083;SDS011;1552;51.952;7.618;2023-09-08T11:44:18;4.20;;;2.75;;
3083;SDS011;1552;51.952;7.618;2023-09-08T11:46:45;3.70;;;3.05;;
3083;SDS011;1552;51.952;7.618;2023-09-08T11:49:13;5.00;;;3.00;;
3083;SDS011;1552;51.952;7.618;2023-09-08T11:51:39;6.28;;;2.75;;
3083;SDS011;1552;51.952;7.618;2023-09-08T11:54:06;4.53;;;2.90;;
3083;SDS011;1552;51.952;7.618;2023-09-08T11:56:33;3.30;;;2.47;;
3083;SDS011;1552;51.952;7.618;2023-09-08T11:59:00;4.78;;;2.90;;
3083;SDS011;1552;51.952;7.618;2023-09-08T12:01:27;5.00;;;2.63;;
3083;SDS011;1552;51.952;7.618;2023-09-08T12:03:54;3.85;;;2.97;;
3083;SDS011;1552;51.952;7.618;2023-09-08T12:06:23;3.33;;;2.92;;
3083;SDS011;1552;51.952;7.618;2023-09-08T12:08:49;3.83;;;2.83;;
3083;SDS011;1552;51.952;7.618;2023-09-08T12:11:16;3.75;;;3.00;;
3083;SDS011;1552;51.952;7.618;2023-09-08T12:13:43;6.93;;;3.42;;
3083;SDS011;1552;51.952;7.618;2023-09-08T12:16:19;4.40;;;3.03;;
3083;SDS011;1552;51.952;7.618;2023-09-08T12:18:48;4.57;;;2.72;;
3083;SDS011;1552;51.952;7.618;2023-09-08T12:21:16;4.18;;;3.15;;
3083;SDS011;1552;51.952;7.618;2023-09-08T12:23:49;5.47;;;3.30;;
3083;SDS011;1552;51.952;7.618;2023-09-08T12:26:15;5.55;;;2.60;;
3083;SDS011;1552;51.952;7.618;2023-09-08T12:28:43;4.40;;;2.88;;
3083;SDS011;1552;51.952;7.618;2023-09-08T12:31:10;5.40;;;3.10;;
3083;SDS011;1552;51.952;7.618;2023-09-08T12:33:38;4.20;;;3.10;;
3083;SDS011;1552;51.952;7.618;2023-09-08T12:36:09;4.25;;;2.90;;
3083;SDS011;1552;51.952;7.618;2023-09-08T12:38:36;4.70;;;3.00;;
3083;SDS011;1552;51.952;7.618;2023-09-08T12:41:02;6.80;;;2.88;;
3083;SDS011;1552;51.952;7.618;2023-09-08T12:43:29;5.43;;;2.45;;
3083;SDS011;1552;51.952;7.618;2023-09-08T12:45:57;5.80;;;3.00;;
3083;SDS011;1552;51.952;7.618;2023-09-08T12:48:23;4.78;;;2.85;;
3083;SDS011;1552;51.952;7.618;2023-09-08T12:50:49;5.50;;;3.03;;
3083;SDS011;1552;51.952;7.618;2023-09-08T12:53:16;6.03;;;3.00;;
3083;SDS011;1552;51.952;7.618;2023-09-08T12:55:43;4.30;;;3.13;;
3083;SDS011;1552;51.952;7.618;2023-09-08T12:58:09;6.68;;;2.85;;
3083;SDS011;1552;51.952;7.618;2023-09-08T13:00:35;7.47;;;3.03;;
3083;SDS011;1552;51.952;7.618;2023-09-08T13:03:03;4.80;;;2.92;;
3083;SDS011;1552;51.952;7.618;2023-09-08T13:05:29;5.18;;;2.53;;
3083;SDS011;1552;51.952;7.618;2023-09-08T13:07:57;4.63;;;2.58;;
3083;SDS011;1552;51.952;7.618;2023-09-08T13:10:23;4.57;;;2.40;;
3083;SDS011;1552;51.952;7.618;2023-09-08T13:12:50;4.50;;;3.05;;
3083;SDS011;1552;51.952;7.618;2023-09-08T13:15:16;6.05;;;2.72;;
3083;SDS011;1552;51.952;7.618;2023-09-08T13:17:43;5.20;;;2.90;;
3083;SDS011;1552;51.952;7.618;2023-09-08T13:20:11;3.97;;;2.55;;
3083;SDS011;1552;51.952;7.618;2023-09-08T13:22:38;6.05;;;2.88;;
3083;SDS011;1552;51.952;7.618;2023-09-08T13:25:05;5.25;;;3.10;;
3083;SDS011;1552;51.952;7.618;2023-09-08T13:27:31;6.10;;;2.78;;
3083;SDS011;1552;51.952;7.618;2023-09-08T13:30:07;4.97;;;2.78;;
3083;SDS011;1552;51.952;7.618;2023-09-08T13:32:33;3.03;;;2.45;;
3083;SDS011;1552;51.952;7.618;2023-09-08T13:35:00;4.65;;;2.40;;
3083;SDS011;1552;51.952;7.618;2023-09-08T13:37:28;3.08;;;2.50;;
3083;SDS011;1552;51.952;7.618;2023-09-08T13:39:57;6.30;;;2.42;;
3083;SDS011;1552;51.952;7.618;2023-09-08T13:42:23;4.32;;;2.88;;
3083;SDS011;1552;51.952;7.618;2023-09-08T13:44:49;4.40;;;2.88;;
3083;SDS011;1552;51.952;7.618;2023-09-08T13:47:16;3.13;;;2.55;;
3083;SDS011;1552;51.952;7.618;2023-09-08T13:49:42;4.18;;;2.58;;
3083;SDS011;1552;51.952;7.618;2023-09-08T13:52:08;4.32;;;2.67;;
3083;SDS011;1552;51.952;7.618;2023-09-08T13:54:36;5.85;;;2.80;;
3083;SDS011;1552;51.952;7.618;2023-09-08T13:57:03;4.20;;;2.90;;
3083;SDS011;1552;51.952;7.618;2023-09-08T13:59:30;3.63;;;2.65;;
3083;SDS011;1552;51.952;7.618;2023-09-08T14:01:56;4.85;;;3.70;;
3083;SDS011;1552;51.952;7.618;2023-09-08T14:04:23;4.22;;;3.05;;
3083;SDS011;1552;51.952;7.618;2023-09-08T14:06:53;4.32;;;2.75;;
3083;SDS011;1552;51.952;7.618;2023-09-08T14:09:19;5.38;;;2.75;;
3083;SDS011;1552;51.952;7.618;2023-09-08T14:11:47;3.15;;;2.42;;
3083;SDS011;1552;51.952;7.618;2023-09-08T14:14:14;4.03;;;2.85;;
3083;SDS011;1552;51.952;7.618;2023-09-08T14:16:40;2.90;;;2.60;;
3083;SDS011;1552;51.952;7.618;2023-09-08T14:19:06;4.15;;;2.80;;
3083;SDS011;1552;51.952;7.618;2023-09-08T14:21:33;3.13;;;2.22;;
3083;SDS011;1552;51.952;7.618;2023-09-08T14:24:01;5.55;;;2.70;;
3083;SDS011;1552;51.952;7.618;2023-09-08T14:26:27;2.22;;;2.00;;
3083;SDS011;1552;51.952;7.618;2023-09-08T14:28:55;3.25;;;2.65;;
3083;SDS011;1552;51.952;7.618;2023-09-08T14:31:22;5.88;;;3.03;;
3083;SDS011;1552;51.952;7.618;2023-09-08T14:33:48;3.55;;;2.78;;
3083;SDS011;1552;51.952;7.618;2023-09-08T14:36:16;4.78;;;2.72;;
3083;SDS011;1552;51.952;7.618;2023-09-08T14:38:42;4.70;;;2.58;;
3083;SDS011;1552;51.952;7.618;2023-09-08T14:41:09;3.83;;;2.60;;
3083;SDS011;1552;51.952;7.618;2023-09-08T14:43:35;3.90;;;2.47;;
3083;SDS011;1552;51.952;7.618;2023-09-08T14:46:03;4.65;;;3.20;;
3083;SDS011;1552;51.952;7.618;2023-09-08T14:48:30;5.60;;;2.72;;
3083;SDS011;1552;51.952;7.618;2023-09-08T14:50:56;4.43;;;2.80;;
3083;SDS011;1552;51.952;7.618;2023-09-08T14:53:23;4.07;;;2.72;;
3083;SDS011;1552;51.952;7.618;2023-09-08T14:55:49;6.30;;;2.70;;
3083;SDS011;1552;51.952;7.618;2023-09-08T14:58:15;4.60;;;2.58;;
3083;SDS011;1552;51.952;7.618;2023-09-08T15:00:42;3.05;;;2.20;;
3083;SDS011;1552;51.952;7.618;2023-09-08T15:03:10;8.65;;;3.10;;
3083;SDS011;1552;51.952;7.618;2023-09-08T15:05:36;3.05;;;2.25;;
3083;SDS011;1552;51.952;7.618;2023-09-08T15:08:03;4.10;;;2.85;;
3083;SDS011;1552;51.952;7.618;2023-09-08T15:10:29;4.72;;;2.53;;
3083;SDS011;1552;51.952;7.618;2023-09-08T15:12:55;3.60;;;2.42;;
3083;SDS011;1552;51.952;7.618;2023-09-08T15:15:22;7.47;;;2.72;;